Tyonek, Alaska
Current Conditions -  °F | °C
As of 9:53 AM on Thursday 23 Oct 2014 (Local Time) from PAEN Reporting Station
Clear Clear  
Wind Chill: 21°   Ceiling: Unl
Heat Index: 21°   Visibility: 10mi
Dew Point: 19°   Wind: 0mph
Humidity: 92%   Direction: NA
Pressure: 29.7"   Gusts: NA
Location:  61.07°N, 151.16°W
Report Text: PAEN 231753Z 00000KT 10SM CLR M06/M07 A2970 RMK AO2 SLP058 T10611072 11039 21067 53013
Loading
Personal Weather Stations






























Interactive Weather Map
Tropical Storm Tracking
New forecast layout! Learn more

10-Day Weather Forecast

Advertisements
Track Severe Weather on mobile